Time;durP1;ratioP1;P1;durP2;ratioP2;P2;SDS_P1;SDS_P2;PMS_P1;PMS_P2;Temp;Humidity;BMP_temperature;BMP_pressure;BME280_temperature;BME280_humidity;BME280_pressure;Samples;Min_cycle;Max_cycle;Signal;HPM_P1;HPM_P2
2024/02/24 00:00:01;;;;;;;6.38;5.65;;;;;;;8.80;57.61;93179.19;521349;28;880;-70
2024/02/24 00:00:17;;;;;;;7.15;6.03;;;;;;;8.81;57.58;93180.66;520889;28;1906;-70
2024/02/24 00:00:32;;;;;;;7.07;5.47;;;;;;;8.82;57.28;93179.38;521620;28;868;-70
2024/02/24 00:00:48;;;;;;;6.70;5.53;;;;;;;8.79;57.29;93175.69;521239;28;1040;-70
2024/02/24 00:01:03;;;;;;;7.13;6.07;;;;;;;8.74;57.71;93171.09;521510;28;817;-70
2024/02/24 00:01:19;;;;;;;6.70;5.72;;;;;;;8.73;57.63;93175.13;519874;28;842;-70
2024/02/24 00:01:35;;;;;;;5.93;5.03;;;;;;;8.73;57.82;93175.13;519417;28;881;-69
2024/02/24 00:01:50;;;;;;;5.47;4.77;;;;;;;8.72;57.73;93176.41;519812;28;1711;-70
2024/02/24 00:02:05;;;;;;;6.28;5.30;;;;;;;8.73;57.73;93180.63;520657;28;972;-70
2024/02/24 00:02:21;;;;;;;7.17;5.90;;;;;;;8.73;57.87;93186.13;521001;28;917;-70
2024/02/24 00:02:36;;;;;;;7.07;6.17;;;;;;;8.70;57.95;93180.97;521477;28;833;-70
2024/02/24 00:02:52;;;;;;;7.30;6.43;;;;;;;8.70;58.00;93178.22;520189;28;817;-70
2024/02/24 00:03:07;;;;;;;7.10;6.33;;;;;;;8.71;57.90;93183.19;519629;28;790;-69
2024/02/24 00:03:23;;;;;;;7.13;5.90;;;;;;;8.72;57.81;93186.69;521451;28;1030;-69
2024/02/24 00:03:38;;;;;;;6.33;5.37;;;;;;;8.70;57.81;93178.97;521477;28;816;-70
2024/02/24 00:03:53;;;;;;;5.53;5.00;;;;;;;8.71;57.83;93182.44;520715;28;952;-70
2024/02/24 00:04:09;;;;;;;5.87;5.10;;;;;;;8.70;57.72;93187.22;521341;28;852;-70
2024/02/24 00:04:24;;;;;;;6.03;5.27;;;;;;;8.70;57.72;93178.97;520870;28;1773;-70
2024/02/24 00:04:40;;;;;;;5.88;5.20;;;;;;;8.71;57.68;93177.69;520262;28;946;-70
2024/02/24 00:04:57;;;;;;;6.03;5.20;;;;;;;8.71;57.94;93177.69;520705;28;868;-70
2024/02/24 00:05:12;;;;;;;5.65;5.05;;;;;;;8.72;58.00;93181.91;520325;28;893;-70
2024/02/24 00:05:28;;;;;;;5.10;4.60;;;;;;;8.72;57.74;93179.16;520749;28;830;-70
2024/02/24 00:05:43;;;;;;;4.93;4.43;;;;;;;8.74;57.48;93192.38;521231;28;1085;-70
2024/02/24 00:05:59;;;;;;;5.53;4.93;;;;;;;8.74;57.60;93181.38;521440;28;884;-70
2024/02/24 00:06:14;;;;;;;6.30;5.50;;;;;;;8.75;57.57;93185.59;521377;28;828;-70
2024/02/24 00:06:29;;;;;;;6.80;5.80;;;;;;;8.75;57.40;93183.56;521035;28;868;-70
2024/02/24 00:06:45;;;;;;;6.82;5.90;;;;;;;8.77;57.35;93186.50;519319;28;825;-70
2024/02/24 00:07:00;;;;;;;6.97;6.27;;;;;;;8.72;57.49;93179.16;519398;28;825;-70
2024/02/24 00:07:16;;;;;;;7.63;6.30;;;;;;;8.70;57.75;93184.47;519330;28;940;-70
2024/02/24 00:07:31;;;;;;;8.37;6.10;;;;;;;8.72;57.84;93183.94;519413;28;865;-70
2024/02/24 00:07:47;;;;;;;7.30;5.90;;;;;;;8.73;57.73;93182.63;519558;28;1510;-71
2024/02/24 00:08:02;;;;;;;6.67;5.83;;;;;;;8.75;57.64;93180.09;520041;28;1407;-70
2024/02/24 00:08:18;;;;;;;6.50;5.80;;;;;;;8.76;57.50;93181.56;520674;28;807;-70
2024/02/24 00:08:33;;;;;;;6.20;5.57;;;;;;;8.74;57.56;93179.34;521526;28;810;-76
2024/02/24 00:08:49;;;;;;;7.07;5.40;;;;;;;8.74;57.86;93184.84;520897;28;1789;-76
2024/02/24 00:09:05;;;;;;;6.30;5.10;;;;;;;8.74;57.75;93182.09;520198;28;782;-76
2024/02/24 00:09:21;;;;;;;5.72;5.13;;;;;;;8.75;57.99;93178.06;520351;28;940;-77
2024/02/24 00:09:36;;;;;;;6.17;5.40;;;;;;;8.75;58.06;93180.81;520511;28;1092;-76
2024/02/24 00:09:52;;;;;;;5.82;5.22;;;;;;;8.77;58.06;93183.03;520897;28;785;-76
2024/02/24 00:10:08;;;;;;;6.13;5.27;;;;;;;8.77;57.87;93186.50;519599;28;861;-77
2024/02/24 00:10:23;;;;;;;6.57;5.72;;;;;;;8.79;58.18;93188.75;519399;28;794;-75
2024/02/24 00:10:39;;;;;;;6.47;5.72;;;;;;;8.80;57.85;93190.19;519441;28;818;-71
2024/02/24 00:10:54;;;;;;;6.97;5.33;;;;;;;8.81;58.06;93186.19;519661;28;857;-70
2024/02/24 00:11:10;;;;;;;7.50;5.25;;;;;;;8.83;57.93;93189.13;521204;28;1129;-70
2024/02/24 00:11:25;;;;;;;6.67;4.97;;;;;;;8.81;57.59;93186.91;521177;28;1730;-72
2024/02/24 00:11:40;;;;;;;5.70;5.10;;;;;;;8.82;57.66;93185.63;519639;28;1400;-69
2024/02/24 00:11:56;;;;;;;5.80;5.20;;;;;;;8.83;57.52;93184.34;519850;28;876;-69
2024/02/24 00:12:11;;;;;;;6.60;5.47;;;;;;;8.82;57.58;93182.88;520580;28;781;-70
2024/02/24 00:12:27;;;;;;;7.10;5.45;;;;;;;8.80;57.20;93177.19;521524;28;1092;-70
2024/02/24 00:12:42;;;;;;;7.00;5.27;;;;;;;8.84;57.39;93177.56;519556;28;984;-70
2024/02/24 00:12:58;;;;;;;6.38;5.20;;;;;;;8.85;57.66;93186.56;521623;28;825;-70
2024/02/24 00:13:13;;;;;;;6.30;5.30;;;;;;;8.84;57.97;93188.56;520814;28;1242;-70
2024/02/24 00:13:29;;;;;;;6.57;5.38;;;;;;;8.80;58.08;93184.69;521658;28;797;-70
2024/02/24 00:13:44;;;;;;;6.43;5.50;;;;;;;8.73;58.12;93183.38;519457;28;1088;-70
2024/02/24 00:14:00;;;;;;;5.93;5.28;;;;;;;8.71;58.30;93185.94;519569;28;853;-70
2024/02/24 00:14:16;;;;;;;5.57;5.07;;;;;;;8.70;58.14;93183.72;520104;28;1738;-70
2024/02/24 00:14:31;;;;;;;5.75;5.25;;;;;;;8.69;58.05;93188.50;521041;28;906;-70
2024/02/24 00:14:46;;;;;;;5.70;5.10;;;;;;;8.69;58.30;93182.25;519766;28;1161;-70
2024/02/24 00:15:02;;;;;;;5.18;4.68;;;;;;;8.67;57.99;93188.31;519430;28;805;-70
2024/02/24 00:15:18;;;;;;;5.00;4.50;;;;;;;8.68;58.15;93184.28;519796;28;798;-70
2024/02/24 00:15:33;;;;;;;5.30;4.70;;;;;;;8.68;57.91;93181.53;519579;28;798;-70
2024/02/24 00:15:49;;;;;;;5.73;5.13;;;;;;;8.69;57.90;93185.75;519452;28;992;-70
2024/02/24 00:16:07;;;;;;;6.18;5.45;;;;;;;8.68;58.00;93178.78;520797;28;1095;-70
2024/02/24 00:16:23;;;;;;;5.95;5.10;;;;;;;8.73;58.02;93174.38;520299;28;1176;-70
2024/02/24 00:16:38;;;;;;;6.17;5.37;;;;;;;8.74;57.98;93179.34;519389;28;976;-70
2024/02/24 00:16:54;;;;;;;6.03;5.13;;;;;;;8.77;57.80;93180.28;519395;28;868;-70
2024/02/24 00:17:09;;;;;;;6.17;4.77;;;;;;;8.77;57.81;93181.00;519971;28;869;-70
2024/02/24 00:17:25;;;;;;;6.53;4.70;;;;;;;8.77;57.95;93181.00;521379;28;829;-70
2024/02/24 00:17:40;;;;;;;6.55;4.85;;;;;;;8.71;57.85;93166.66;521352;28;1238;-70
2024/02/24 00:17:56;;;;;;;5.90;4.87;;;;;;;8.78;57.61;93176.25;520959;28;1426;-70
2024/02/24 00:18:11;;;;;;;5.18;4.68;;;;;;;8.80;57.79;93176.44;520486;28;770;-70
2024/02/24 00:18:27;;;;;;;5.63;4.80;;;;;;;8.67;57.69;93157.28;519471;28;1218;-70
2024/02/24 00:18:42;;;;;;;5.90;4.93;;;;;;;8.81;57.51;93175.91;519550;28;962;-70
2024/02/24 00:18:59;;;;;;;5.47;4.90;;;;;;;8.80;57.79;93174.41;519422;28;877;-70
2024/02/24 00:19:15;;;;;;;5.35;4.65;;;;;;;8.80;57.42;93177.19;520611;28;881;-70
2024/02/24 00:19:30;;;;;;;6.20;5.07;;;;;;;8.81;57.41;93175.16;521356;28;1370;-70
2024/02/24 00:19:46;;;;;;;5.70;4.73;;;;;;;8.80;57.35;93174.41;519459;28;868;-70
2024/02/24 00:20:01;;;;;;;4.72;4.22;;;;;;;8.80;57.54;93174.41;519430;28;917;-70
2024/02/24 00:20:17;;;;;;;5.00;4.50;;;;;;;8.81;57.67;93173.16;520840;28;1914;-70
2024/02/24 00:20:32;;;;;;;5.20;4.70;;;;;;;8.82;57.68;93180.13;521554;28;853;-70
2024/02/24 00:20:48;;;;;;;5.15;4.65;;;;;;;8.76;57.94;93173.31;521448;28;1068;-71
2024/02/24 00:21:04;;;;;;;4.87;4.40;;;;;;;8.73;58.35;93171.63;521745;28;1018;-70
2024/02/24 00:21:19;;;;;;;4.80;4.30;;;;;;;8.71;58.19;93177.69;521070;28;1168;-71
2024/02/24 00:21:35;;;;;;;5.23;4.37;;;;;;;8.71;58.05;93176.94;521581;28;974;-71
2024/02/24 00:21:50;;;;;;;5.95;4.57;;;;;;;8.71;58.40;93180.44;521523;28;853;-70
2024/02/24 00:22:06;;;;;;;5.67;4.43;;;;;;;8.72;58.36;93176.41;519154;28;996;-70
2024/02/24 00:22:21;;;;;;;4.85;4.35;;;;;;;8.70;58.09;93167.97;517129;28;857;-70
2024/02/24 00:22:37;;;;;;;4.77;4.37;;;;;;;8.74;58.19;93176.59;516696;28;1799;-71
2024/02/24 00:22:52;;;;;;;4.90;4.40;;;;;;;8.75;57.94;93177.34;515348;28;973;-70
2024/02/24 00:23:08;;;;;;;5.07;4.57;;;;;;;8.75;58.16;93175.31;515612;28;974;-70
2024/02/24 00:23:23;;;;;;;5.55;4.68;;;;;;;8.77;57.84;93175.50;517149;28;829;-70
2024/02/24 00:23:38;;;;;;;6.17;4.57;;;;;;;8.78;57.72;93176.97;516797;28;900;-70
2024/02/24 00:23:54;;;;;;;4.93;4.20;;;;;;;8.79;57.72;93177.72;515297;28;798;-71
2024/02/24 00:24:09;;;;;;;4.77;4.10;;;;;;;8.77;58.02;93172.03;517875;28;790;-71
2024/02/24 00:24:25;;;;;;;5.13;4.30;;;;;;;8.78;57.76;93173.50;520127;28;1028;-70
2024/02/24 00:24:40;;;;;;;4.93;4.43;;;;;;;8.77;57.88;93174.78;519102;28;874;-71
2024/02/24 00:24:56;;;;;;;5.27;4.47;;;;;;;8.78;57.82;93181.75;519229;28;810;-71
2024/02/24 00:25:11;;;;;;;5.72;4.78;;;;;;;8.76;57.83;93178.81;520186;28;864;-71
2024/02/24 00:25:27;;;;;;;5.47;4.70;;;;;;;8.76;57.69;93182.28;519878;28;1751;-70
2024/02/24 00:25:42;;;;;;;5.32;4.53;;;;;;;8.77;57.73;93180.28;521269;28;770;-69
2024/02/24 00:25:57;;;;;;;5.40;4.73;;;;;;;8.78;57.52;93179.00;519912;28;1108;-70
2024/02/24 00:26:13;;;;;;;5.20;4.57;;;;;;;8.78;57.83;93176.25;521319;28;890;-69
2024/02/24 00:26:28;;;;;;;4.82;4.18;;;;;;;8.77;57.77;93178.25;519694;28;916;-69
2024/02/24 00:26:44;;;;;;;5.63;4.43;;;;;;;8.74;57.26;93176.59;519342;28;774;-70
2024/02/24 00:26:59;;;;;;;5.82;4.75;;;;;;;8.74;57.70;93175.84;519414;28;860;-70
2024/02/24 00:27:15;;;;;;;5.70;4.77;;;;;;;8.72;57.82;93178.41;520502;28;767;-70
2024/02/24 00:27:30;;;;;;;5.85;4.68;;;;;;;8.71;57.62;93191.44;519996;28;806;-70
2024/02/24 00:27:45;;;;;;;5.00;4.40;;;;;;;8.71;57.72;93187.94;521157;28;1081;-70
2024/02/24 00:28:02;;;;;;;5.57;4.37;;;;;;;8.71;57.68;93176.94;520594;28;1664;-70
2024/02/24 00:28:17;;;;;;;5.78;4.53;;;;;;;8.72;57.84;93172.91;519689;28;924;-70
2024/02/24 00:28:33;;;;;;;4.87;4.37;;;;;;;8.72;57.62;93173.66;520589;28;770;-70
2024/02/24 00:28:49;;;;;;;4.80;4.28;;;;;;;8.70;57.68;93167.22;521421;28;901;-70
2024/02/24 00:29:04;;;;;;;5.65;4.60;;;;;;;8.73;57.53;93169.63;520093;28;838;-70
2024/02/24 00:29:20;;;;;;;6.53;4.70;;;;;;;8.74;57.83;93182.09;521123;28;929;-70
2024/02/24 00:29:35;;;;;;;5.53;4.47;;;;;;;8.74;57.70;93176.59;521438;28;868;-70
2024/02/24 00:29:51;;;;;;;4.77;4.27;;;;;;;8.76;57.63;93176.06;521372;28;857;-70
2024/02/24 00:30:07;;;;;;;5.35;4.65;;;;;;;8.76;57.56;93176.06;520633;28;786;-70
2024/02/24 00:30:23;;;;;;;6.45;4.85;;;;;;;8.77;57.45;93181.00;521361;28;791;-70
2024/02/24 00:30:38;;;;;;;6.22;4.53;;;;;;;8.78;57.44;93176.25;520847;28;1766;-70
2024/02/24 00:30:54;;;;;;;5.30;4.33;;;;;;;8.77;57.55;93180.28;519610;28;922;-70
2024/02/24 00:31:09;;;;;;;5.45;4.18;;;;;;;8.75;57.66;93178.06;519831;28;920;-70
2024/02/24 00:31:25;;;;;;;5.20;4.30;;;;;;;8.76;57.63;93173.31;521385;28;782;-70
2024/02/24 00:31:40;;;;;;;4.83;4.33;;;;;;;8.75;57.55;93172.56;520730;28;813;-70
2024/02/24 00:31:56;;;;;;;4.63;4.13;;;;;;;8.76;57.56;93168.53;519330;28;782;-70
2024/02/24 00:32:11;;;;;;;4.80;4.32;;;;;;;8.77;57.63;93170.00;520124;28;857;-70
2024/02/24 00:32:27;;;;;;;5.00;4.50;;;;;;;8.77;57.51;93178.25;521245;28;889;-69
2024/02/24 00:32:42;;;;;;;4.75;4.28;;;;;;;8.78;57.48;93174.22;521074;28;825;-70
2024/02/24 00:32:58;;;;;;;5.40;4.50;;;;;;;8.78;57.52;93173.50;519403;28;793;-70
2024/02/24 00:33:13;;;;;;;6.53;4.87;;;;;;;8.78;57.58;93173.50;520288;28;868;-70
2024/02/24 00:33:28;;;;;;;6.00;4.70;;;;;;;8.78;57.54;93179.00;521464;28;896;-70
2024/02/24 00:33:44;;;;;;;5.20;4.57;;;;;;;8.77;57.74;93175.50;521236;28;1807;-69
2024/02/24 00:33:59;;;;;;;5.75;4.70;;;;;;;8.77;57.86;93181.00;519861;28;1614;-70
2024/02/24 00:34:15;;;;;;;5.37;4.30;;;;;;;8.78;57.92;93176.25;521126;28;1174;-70
2024/02/24 00:34:30;;;;;;;5.40;4.18;;;;;;;8.77;57.62;93178.25;519373;28;1011;-69
2024/02/24 00:34:46;;;;;;;5.80;4.50;;;;;;;8.76;57.63;93176.06;519341;28;833;-70
2024/02/24 00:35:01;;;;;;;5.17;4.67;;;;;;;8.74;57.92;93187.63;519365;28;849;-69
2024/02/24 00:35:17;;;;;;;4.97;4.47;;;;;;;8.75;57.98;93177.34;520869;28;853;-70
2024/02/24 00:35:33;;;;;;;4.90;4.40;;;;;;;8.76;57.66;93178.81;521484;28;828;-70
2024/02/24 00:35:48;;;;;;;5.35;4.53;;;;;;;8.76;57.73;93173.31;521265;28;1206;-70
2024/02/24 00:36:04;;;;;;;5.25;4.50;;;;;;;8.76;57.76;93176.06;519776;28;766;-70
2024/02/24 00:36:19;;;;;;;4.88;4.30;;;;;;;8.78;57.81;93179.75;521253;28;1082;-70
2024/02/24 00:36:35;;;;;;;4.87;4.40;;;;;;;8.78;57.52;93182.50;521426;28;1110;-69
2024/02/24 00:36:50;;;;;;;5.00;4.50;;;;;;;8.75;57.94;93172.56;521444;28;824;-70
2024/02/24 00:37:06;;;;;;;5.13;4.45;;;;;;;8.76;58.13;93173.31;521393;28;876;-70
2024/02/24 00:37:21;;;;;;;5.63;4.50;;;;;;;8.72;58.48;93170.91;521197;28;933;-70
2024/02/24 00:37:36;;;;;;;5.88;4.45;;;;;;;8.70;58.35;93176.22;519812;28;1529;-70
2024/02/24 00:37:52;;;;;;;4.93;4.13;;;;;;;8.69;58.51;93174.00;521280;28;782;-70
2024/02/24 00:38:07;;;;;;;4.43;4.03;;;;;;;8.70;58.69;93180.97;519727;28;896;-69
2024/02/24 00:38:23;;;;;;;4.90;4.40;;;;;;;8.70;58.47;93173.47;521429;28;848;-70
2024/02/24 00:38:38;;;;;;;5.27;4.77;;;;;;;8.71;58.20;93174.94;519627;28;986;-69
2024/02/24 00:38:54;;;;;;;5.10;4.60;;;;;;;8.72;58.30;93172.91;519709;28;1048;-70
2024/02/24 00:39:09;;;;;;;4.67;4.27;;;;;;;8.74;58.20;93170.34;521363;28;778;-69
2024/02/24 00:39:25;;;;;;;4.78;4.28;;;;;;;8.74;58.08;93176.59;521396;28;841;-70
2024/02/24 00:39:40;;;;;;;5.00;4.30;;;;;;;8.74;58.15;93173.84;519941;28;798;-70
2024/02/24 00:39:56;;;;;;;4.75;4.20;;;;;;;8.75;58.07;93172.56;519407;28;845;-70
2024/02/24 00:40:11;;;;;;;5.17;4.67;;;;;;;8.73;58.40;93174.38;519552;28;1927;-70
2024/02/24 00:40:27;;;;;;;5.80;4.75;;;;;;;8.66;58.60;93177.84;520259;28;941;-70
2024/02/24 00:40:42;;;;;;;5.53;4.57;;;;;;;8.58;58.74;93172.28;520135;28;1088;-69
2024/02/24 00:40:58;;;;;;;7.95;6.40;;;;;;;8.60;58.55;93180.03;519288;28;906;-70
2024/02/24 00:41:13;;;;;;;11.13;8.80;;;;;;;8.60;58.55;93166.25;519707;28;846;-70
2024/02/24 00:41:29;;;;;;;10.90;8.98;;;;;;;8.62;58.50;93169.91;519347;28;1007;-70
2024/02/24 00:41:44;;;;;;;10.53;8.20;;;;;;;8.63;58.60;93165.91;519291;28;805;-70
2024/02/24 00:42:00;;;;;;;10.63;7.95;;;;;;;8.65;58.50;93166.09;519388;28;1015;-70
2024/02/24 00:42:15;;;;;;;9.53;7.43;;;;;;;8.66;58.45;93156.56;520036;28;1108;-70
2024/02/24 00:42:31;;;;;;;9.35;7.07;;;;;;;8.67;58.52;93163.53;519304;28;909;-70
2024/02/24 00:42:46;;;;;;;10.30;7.53;;;;;;;8.65;58.11;93171.59;519307;28;821;-70
2024/02/24 00:43:02;;;;;;;10.02;7.20;;;;;;;8.62;58.95;93166.47;519321;28;889;-70
2024/02/24 00:43:17;;;;;;;11.23;6.90;;;;;;;8.61;58.42;93167.72;520338;28;1494;-70
2024/02/24 00:43:32;;;;;;;10.25;6.55;;;;;;;8.59;58.54;93160.03;520230;28;1064;-70
2024/02/24 00:43:48;;;;;;;9.00;6.40;;;;;;;8.58;58.76;93169.53;520513;28;1159;-70
2024/02/24 00:44:03;;;;;;;7.80;5.80;;;;;;;8.55;58.78;93164.41;519384;28;995;-70
2024/02/24 00:44:19;;;;;;;6.10;4.78;;;;;;;8.56;59.08;93165.84;521009;28;1048;-70
2024/02/24 00:44:34;;;;;;;5.53;4.40;;;;;;;8.54;59.01;93171.16;521461;28;881;-70
2024/02/24 00:44:50;;;;;;;5.30;4.43;;;;;;;8.54;59.22;93169.16;521399;28;774;-70
2024/02/24 00:45:06;;;;;;;5.40;4.47;;;;;;;8.55;59.20;93170.63;521358;28;916;-70
2024/02/24 00:45:21;;;;;;;6.50;4.88;;;;;;;8.56;59.18;93165.84;520821;28;1024;-70
2024/02/24 00:45:36;;;;;;;6.28;5.00;;;;;;;8.51;59.45;93167.47;519309;28;896;-70
2024/02/24 00:45:52;;;;;;;5.93;4.70;;;;;;;8.49;59.43;93166.56;519365;28;758;-70
2024/02/24 00:46:08;;;;;;;6.67;5.00;;;;;;;8.48;59.35;93162.31;519601;28;825;-69
2024/02/24 00:46:23;;;;;;;6.50;4.95;;;;;;;8.48;59.49;93159.56;521380;28;812;-70
2024/02/24 00:46:38;;;;;;;6.03;4.67;;;;;;;8.50;59.80;93168.03;521353;28;886;-71
2024/02/24 00:46:54;;;;;;;5.57;4.55;;;;;;;8.50;59.63;93162.53;521348;28;853;-70
2024/02/24 00:47:09;;;;;;;5.80;4.70;;;;;;;8.51;59.92;93169.50;520271;28;1560;-69
2024/02/24 00:47:25;;;;;;;6.27;4.90;;;;;;;8.51;59.74;93164.00;520355;28;853;-70
2024/02/24 00:47:40;;;;;;;5.70;4.60;;;;;;;8.50;59.63;93168.75;520021;28;1101;-70
2024/02/24 00:47:56;;;;;;;5.25;4.75;;;;;;;8.49;59.51;93164.53;521452;28;801;-70
2024/02/24 00:48:11;;;;;;;5.30;4.80;;;;;;;8.49;59.42;93164.53;520898;28;1094;-70
2024/02/24 00:48:28;;;;;;;5.75;4.70;;;;;;;8.47;59.26;93164.34;519073;28;1409;-70
2024/02/24 00:48:44;;;;;;;5.43;4.32;;;;;;;8.52;59.19;93166.22;519286;28;830;-70
2024/02/24 00:48:59;;;;;;;5.40;4.43;;;;;;;8.51;59.14;93166.75;519558;28;840;-70
2024/02/24 00:49:15;;;;;;;6.00;4.78;;;;;;;8.53;59.27;93169.69;520091;28;953;-70
2024/02/24 00:49:30;;;;;;;5.10;4.40;;;;;;;8.51;59.21;93164.72;521432;28;789;-70
2024/02/24 00:49:45;;;;;;;4.93;4.43;;;;;;;8.49;59.11;93159.03;520805;28;1787;-70
2024/02/24 00:50:01;;;;;;;5.00;4.50;;;;;;;8.48;59.44;93160.31;520186;28;893;-70
2024/02/24 00:50:16;;;;;;;4.80;4.27;;;;;;;8.49;59.34;93150.06;521000;28;766;-70
2024/02/24 00:50:32;;;;;;;5.80;4.57;;;;;;;8.50;59.41;93152.25;519462;28;900;-70
2024/02/24 00:50:47;;;;;;;6.20;4.80;;;;;;;8.51;59.25;93164.72;519312;28;813;-70
2024/02/24 00:51:03;;;;;;;5.50;4.75;;;;;;;8.53;59.28;93156.69;521069;28;1124;-70
2024/02/24 00:51:19;;;;;;;5.63;5.00;;;;;;;8.54;59.17;93160.91;521272;28;932;-70
2024/02/24 00:51:34;;;;;;;6.80;5.43;;;;;;;8.56;59.35;93161.09;521352;28;824;-70
2024/02/24 00:51:49;;;;;;;6.03;5.10;;;;;;;8.58;59.31;93157.78;521393;28;797;-70
2024/02/24 00:52:05;;;;;;;5.03;4.53;;;;;;;8.60;59.23;93163.50;519340;28;838;-70
2024/02/24 00:52:20;;;;;;;5.03;4.53;;;;;;;8.60;58.98;93166.97;521025;28;901;-70
2024/02/24 00:52:36;;;;;;;5.28;4.70;;;;;;;8.63;59.00;93162.41;520619;28;1407;-70
2024/02/24 00:52:51;;;;;;;5.93;4.83;;;;;;;8.63;59.00;93154.16;520468;28;790;-70
2024/02/24 00:53:07;;;;;;;5.22;4.28;;;;;;;8.64;58.89;93152.88;520044;28;857;-70
2024/02/24 00:53:22;;;;;;;4.70;4.00;;;;;;;8.65;58.74;93154.34;522068;28;750;-70
2024/02/24 00:53:38;;;;;;;4.70;3.97;;;;;;;8.63;58.86;93157.66;521825;28;834;-70
2024/02/24 00:53:54;;;;;;;4.93;3.97;;;;;;;8.61;58.90;93146.44;519982;28;869;-70
2024/02/24 00:54:09;;;;;;;6.67;4.20;;;;;;;8.56;58.93;93154.84;520562;28;1065;-70
2024/02/24 00:54:25;;;;;;;6.07;4.33;;;;;;;8.56;59.09;93150.09;522035;28;1108;-70
2024/02/24 00:54:40;;;;;;;4.93;4.43;;;;;;;8.54;59.20;93155.41;522016;28;1046;-69
2024/02/24 00:54:55;;;;;;;5.23;4.40;;;;;;;8.53;59.60;93153.94;520049;28;857;-70
2024/02/24 00:55:11;;;;;;;6.55;4.70;;;;;;;8.50;59.26;93152.25;520718;28;750;-70
2024/02/24 00:55:27;;;;;;;5.73;4.60;;;;;;;8.44;59.24;93146.19;520540;28;1794;-70
2024/02/24 00:55:42;;;;;;;4.38;3.97;;;;;;;8.45;59.37;93150.38;521906;28;1057;-70
2024/02/24 00:55:58;;;;;;;4.22;3.83;;;;;;;8.43;59.62;93149.44;520183;28;794;-70
2024/02/24 00:56:13;;;;;;;5.17;4.23;;;;;;;8.44;59.50;93150.94;521044;28;860;-70
2024/02/24 00:56:29;;;;;;;5.15;4.25;;;;;;;8.42;59.68;93151.50;520316;28;936;-70
2024/02/24 00:56:44;;;;;;;4.00;3.57;;;;;;;8.43;59.81;93150.19;519949;28;774;-70
2024/02/24 00:57:00;;;;;;;4.40;4.00;;;;;;;8.44;59.89;93154.44;520078;28;1049;-70
2024/02/24 00:57:15;;;;;;;5.00;4.50;;;;;;;8.43;60.02;93158.44;521323;28;841;-70
2024/02/24 00:57:31;;;;;;;4.90;4.20;;;;;;;8.45;59.78;93155.91;520532;28;1112;-70
2024/02/24 00:57:46;;;;;;;4.57;4.10;;;;;;;8.44;59.75;93161.94;519970;28;778;-70
2024/02/24 00:58:02;;;;;;;4.87;4.30;;;;;;;8.45;59.65;93155.91;520407;28;1728;-70
2024/02/24 00:58:17;;;;;;;4.95;4.22;;;;;;;8.42;59.82;93157.00;520397;28;834;-70
2024/02/24 00:58:33;;;;;;;4.93;4.25;;;;;;;8.43;59.74;93158.44;521306;28;833;-70
2024/02/24 00:58:48;;;;;;;5.70;4.50;;;;;;;8.40;59.71;93151.28;522034;28;855;-70
2024/02/24 00:59:04;;;;;;;5.13;4.22;;;;;;;8.39;59.86;93158.06;520770;28;1100;-70
2024/02/24 00:59:19;;;;;;;4.63;4.00;;;;;;;8.38;59.77;93153.84;521907;28;794;-70
2024/02/24 00:59:35;;;;;;;4.50;4.10;;;;;;;8.37;59.81;93150.38;522001;28;868;-70
2024/02/24 00:59:51;;;;;;;4.68;4.15;;;;;;;8.38;60.00;93153.84;522182;28;861;-70
2024/02/24 01:00:07;;;;;;;5.07;4.13;;;;;;;8.38;59.59;93151.81;521244;28;856;-71
2024/02/24 01:00:22;;;;;;;4.35;3.95;;;;;;;8.42;59.58;93153.50;521963;28;1922;-70
2024/02/24 01:00:38;;;;;;;4.37;3.90;;;;;;;8.44;59.75;93153.69;521264;28;1766;-70
2024/02/24 01:00:53;;;;;;;5.00;4.10;;;;;;;8.46;59.75;93160.13;520344;28;1212;-70
2024/02/24 01:01:09;;;;;;;4.87;4.30;;;;;;;8.46;59.40;93151.88;521609;28;901;-70
2024/02/24 01:01:25;;;;;;;4.88;4.40;;;;;;;8.45;59.77;93158.66;519864;28;841;-70
2024/02/24 01:01:40;;;;;;;5.43;4.85;;;;;;;8.45;59.68;93157.91;519848;28;785;-70
2024/02/24 01:01:56;;;;;;;5.37;4.80;;;;;;;8.45;59.66;93158.66;519931;28;801;-70
2024/02/24 01:02:11;;;;;;;4.88;4.38;;;;;;;8.47;59.37;93153.34;520138;28;877;-70
2024/02/24 01:02:27;;;;;;;5.10;4.60;;;;;;;8.46;59.49;93145.63;519757;28;1234;-70
2024/02/24 01:02:42;;;;;;;6.32;5.00;;;;;;;8.45;59.38;93150.38;519858;28;876;-70
2024/02/24 01:02:57;;;;;;;6.53;4.90;;;;;;;8.45;59.54;93155.91;520012;28;916;-70
2024/02/24 01:03:13;;;;;;;7.18;5.47;;;;;;;8.45;59.57;93160.66;520982;28;852;-70
2024/02/24 01:03:29;;;;;;;10.60;6.53;;;;;;;8.31;59.68;93132.53;522085;28;927;-70
2024/02/24 01:03:44;;;;;;;15.50;8.98;;;;;;;8.45;59.75;93155.91;521968;28;873;-70
2024/02/24 01:04:00;;;;;;;17.97;11.53;;;;;;;8.44;59.68;93159.94;521918;28;1092;-70
2024/02/24 01:04:15;;;;;;;21.33;12.82;;;;;;;8.43;59.67;93163.22;522068;27;829;-70
2024/02/24 01:04:31;;;;;;;25.07;14.27;;;;;;;8.38;59.84;93156.59;522097;28;801;-70
2024/02/24 01:04:48;;;;;;;23.73;14.02;;;;;;;8.36;60.19;93161.88;522102;28;817;-70
2024/02/24 01:05:04;;;;;;;20.05;12.48;;;;;;;8.33;60.15;93160.22;521980;28;876;-70
2024/02/24 01:05:20;;;;;;;19.98;12.32;;;;;;;8.33;60.23;93151.97;521477;28;1604;-70
2024/02/24 01:05:35;;;;;;;21.65;13.10;;;;;;;8.35;60.09;93157.69;520204;28;1056;-70
2024/02/24 01:05:51;;;;;;;21.03;13.23;;;;;;;8.37;60.16;93163.38;519944;28;801;-70
2024/02/24 01:06:06;;;;;;;16.48;10.90;;;;;;;8.40;59.85;93168.50;520124;28;845;-70
2024/02/24 01:06:22;;;;;;;10.77;7.53;;;;;;;8.43;59.75;93166.69;521200;28;888;-70
2024/02/24 01:06:37;;;;;;;6.85;5.57;;;;;;;8.45;59.97;93166.91;519944;28;848;-70
2024/02/24 01:06:53;;;;;;;6.20;5.07;;;;;;;8.48;59.61;93167.84;520107;28;778;-70
2024/02/24 01:07:10;;;;;;;9.77;6.93;;;;;;;8.50;59.54;93162.53;520673;28;1057;-70
2024/02/24 01:07:25;;;;;;;14.02;8.82;;;;;;;8.49;59.61;93164.53;521399;27;844;-70
2024/02/24 01:07:41;;;;;;;13.07;8.73;;;;;;;8.50;59.46;93168.03;520030;28;900;-70
2024/02/24 01:07:57;;;;;;;9.70;6.93;;;;;;;8.49;59.48;93166.56;519929;28;801;-70
2024/02/24 01:08:12;;;;;;;7.10;5.18;;;;;;;8.52;59.40;93173.72;520866;28;873;-70
2024/02/24 01:08:28;;;;;;;6.20;5.00;;;;;;;8.51;59.37;93167.47;522152;27;848;-70
2024/02/24 01:08:43;;;;;;;6.15;4.97;;;;;;;8.52;59.67;93171.72;521924;28;1064;-70
2024/02/24 01:08:59;;;;;;;7.63;5.70;;;;;;;8.52;59.86;93162.72;520379;28;1719;-70
2024/02/24 01:09:14;;;;;;;11.15;7.18;;;;;;;8.51;59.73;93170.22;521871;28;813;-70
2024/02/24 01:09:30;;;;;;;12.67;8.07;;;;;;;8.51;60.08;93167.47;520208;28;794;-70
2024/02/24 01:09:45;;;;;;;11.00;8.00;;;;;;;8.50;60.07;93168.75;519938;28;873;-70
2024/02/24 01:10:00;;;;;;;12.03;8.43;;;;;;;8.51;59.84;93161.97;520015;28;881;-70
2024/02/24 01:10:16;;;;;;;13.43;8.70;;;;;;;8.53;59.57;93170.44;521452;28;798;-71
2024/02/24 01:10:31;;;;;;;9.35;6.72;;;;;;;8.52;59.46;93160.72;521670;28;1095;-71
2024/02/24 01:10:47;;;;;;;6.53;5.00;;;;;;;8.52;59.75;93168.97;522027;28;801;-71
2024/02/24 01:11:05;;;;;;;6.13;4.80;;;;;;;8.53;59.55;93164.94;520457;28;861;-71
2024/02/24 01:11:20;;;;;;;5.40;4.90;;;;;;;8.55;59.34;93169.91;519989;28;944;-71
2024/02/24 01:11:36;;;;;;;5.57;4.87;;;;;;;8.55;59.28;93165.13;520458;28;1754;-71
2024/02/24 01:11:51;;;;;;;5.57;4.80;;;;;;;8.51;59.53;93170.22;521579;28;841;-71
2024/02/24 01:12:07;;;;;;;6.70;5.47;;;;;;;8.48;59.62;93168.56;521835;28;973;-71
2024/02/24 01:12:23;;;;;;;9.02;6.68;;;;;;;8.46;60.01;93167.63;522189;27;837;-71
2024/02/24 01:12:38;;;;;;;10.40;7.50;;;;;;;8.25;60.14;93138.19;520517;28;923;-70
2024/02/24 01:12:54;;;;;;;10.03;7.07;;;;;;;8.39;60.05;93163.56;519905;28;865;-71
2024/02/24 01:13:09;;;;;;;8.18;5.95;;;;;;;8.25;60.31;93145.69;520534;28;813;-70
2024/02/24 01:13:25;;;;;;;7.60;5.50;;;;;;;8.36;60.02;93170.13;521970;28;805;-70
2024/02/24 01:13:41;;;;;;;8.27;5.75;;;;;;;8.35;60.28;93168.69;521854;28;938;-70
2024/02/24 01:13:57;;;;;;;7.60;5.32;;;;;;;8.35;60.06;93160.44;522066;28;841;-70
2024/02/24 01:14:13;;;;;;;5.72;4.70;;;;;;;8.33;60.10;93174.00;521376;28;1687;-70
2024/02/24 01:14:29;;;;;;;4.97;4.47;;;;;;;8.31;60.24;93162.78;519987;28;940;-71
2024/02/24 01:14:44;;;;;;;5.32;4.78;;;;;;;8.30;60.14;93161.31;521102;28;858;-70
2024/02/24 01:15:00;;;;;;;5.53;4.73;;;;;;;8.32;59.96;93167.00;522118;28;805;-70
2024/02/24 01:15:15;;;;;;;5.18;4.43;;;;;;;8.28;60.13;93161.84;521869;28;962;-71
2024/02/24 01:15:32;;;;;;;4.60;4.07;;;;;;;8.28;60.14;93164.59;522121;28;781;-70
2024/02/24 01:15:48;;;;;;;4.93;3.92;;;;;;;8.26;60.11;93164.41;522036;28;901;-71
2024/02/24 01:16:03;;;;;;;5.70;4.20;;;;;;;8.25;60.41;93154.69;521937;28;880;-70
2024/02/24 01:16:19;;;;;;;4.95;4.38;;;;;;;8.24;60.30;93157.94;521029;28;825;-71